Time;durP1;ratioP1;P1;durP2;ratioP2;P2;SDS_P1;SDS_P2;PMS_P1;PMS_P2;Temp;Humidity;BMP_temperature;BMP_pressure;BME280_temperature;BME280_humidity;BME280_pressure;Samples;Min_cycle;Max_cycle;Signal;HPM_P1;HPM_P2
2022/02/25 00:00:37;;;;;;;1.77;0.73;;;8.40;99.90;;;;;;5076898;28;20253;-79
2022/02/25 00:03:06;;;;;;;1.75;0.98;;;8.40;99.90;;;;;;5081757;28;20197;-78
2022/02/25 00:05:35;;;;;;;0.98;0.80;;;8.40;99.90;;;;;;5077876;28;20232;-79
2022/02/25 00:08:04;;;;;;;1.23;1.00;;;8.40;99.90;;;;;;5072699;28;20199;-79
2022/02/25 00:10:34;;;;;;;1.58;0.88;;;8.30;99.90;;;;;;5086014;28;20228;-79
2022/02/25 00:13:02;;;;;;;1.30;1.13;;;8.40;99.90;;;;;;5087433;28;20209;-78
2022/02/25 00:15:30;;;;;;;2.40;0.98;;;8.40;99.90;;;;;;5071841;28;20228;-79
2022/02/25 00:17:58;;;;;;;1.33;1.23;;;8.30;99.90;;;;;;5074129;28;20211;-79
2022/02/25 00:20:27;;;;;;;0.70;0.60;;;8.30;99.90;;;;;;5076509;28;20633;-79
2022/02/25 00:22:55;;;;;;;1.10;0.82;;;8.30;99.90;;;;;;5087385;28;20191;-79
2022/02/25 00:25:23;;;;;;;0.98;0.60;;;8.30;99.90;;;;;;5074264;28;20228;-79
2022/02/25 00:27:53;;;;;;;1.35;1.00;;;8.30;99.90;;;;;;5075156;28;20652;-79
2022/02/25 00:30:22;;;;;;;0.95;0.80;;;8.30;99.90;;;;;;5086925;28;20243;-79
2022/02/25 00:32:50;;;;;;;0.85;0.80;;;8.30;99.90;;;;;;5060746;28;20269;-79
2022/02/25 00:35:18;;;;;;;1.55;1.00;;;8.30;99.90;;;;;;5084490;28;20217;-79
2022/02/25 00:37:46;;;;;;;1.63;1.00;;;8.30;99.90;;;;;;5090823;28;20240;-79
2022/02/25 00:40:14;;;;;;;1.48;1.38;;;8.30;99.90;;;;;;5075649;28;20227;-79
2022/02/25 00:42:42;;;;;;;2.40;1.60;;;8.30;99.90;;;;;;5090924;28;20213;-79
2022/02/25 00:45:12;;;;;;;1.30;1.13;;;8.30;99.90;;;;;;5088922;28;20725;-79
2022/02/25 00:47:40;;;;;;;0.85;0.70;;;8.30;99.90;;;;;;5076465;28;20192;-79
2022/02/25 00:50:10;;;;;;;2.45;1.40;;;8.30;99.90;;;;;;5082926;28;20271;-79
2022/02/25 00:52:38;;;;;;;2.25;1.20;;;8.30;99.90;;;;;;5089011;28;20240;-79
2022/02/25 00:55:08;;;;;;;1.17;0.85;;;8.30;99.90;;;;;;5080506;28;20221;-78
2022/02/25 00:57:36;;;;;;;2.35;0.90;;;8.30;99.90;;;;;;5076337;28;20237;-79
2022/02/25 01:00:05;;;;;;;2.17;0.80;;;8.30;99.90;;;;;;5086618;28;20366;-79
2022/02/25 01:02:35;;;;;;;2.30;1.05;;;8.30;99.90;;;;;;5070736;28;20176;-79
2022/02/25 01:05:03;;;;;;;3.92;1.55;;;8.30;99.90;;;;;;5072163;28;20308;-79
2022/02/25 01:07:31;;;;;;;1.13;0.70;;;8.30;99.90;;;;;;5071817;28;20579;-79
2022/02/25 01:10:00;;;;;;;1.00;0.70;;;8.30;99.90;;;;;;5087013;28;20273;-79
2022/02/25 01:12:28;;;;;;;1.40;1.02;;;8.30;99.90;;;;;;5077663;28;20205;-79
2022/02/25 01:14:56;;;;;;;1.98;0.90;;;8.30;99.90;;;;;;5087132;28;20229;-79
2022/02/25 01:17:25;;;;;;;1.25;0.80;;;8.30;99.90;;;;;;5090602;28;20207;-79
2022/02/25 01:19:54;;;;;;;2.10;1.17;;;8.30;99.90;;;;;;5087988;28;20223;-78
2022/02/25 01:22:23;;;;;;;2.88;0.93;;;8.30;99.90;;;;;;5090426;28;20187;-79
2022/02/25 01:24:52;;;;;;;1.25;0.82;;;8.30;99.90;;;;;;5073752;28;20609;-79
2022/02/25 01:27:20;;;;;;;2.13;1.08;;;8.20;99.90;;;;;;5072229;28;20193;-79
2022/02/25 01:29:48;;;;;;;1.77;1.20;;;8.30;99.90;;;;;;5085954;28;20236;-79
2022/02/25 01:32:17;;;;;;;3.60;1.45;;;8.20;99.90;;;;;;5079270;28;20214;-79
2022/02/25 01:34:45;;;;;;;1.52;1.10;;;8.20;99.90;;;;;;5075222;28;20241;-78
2022/02/25 01:37:14;;;;;;;1.63;0.75;;;8.20;99.90;;;;;;5088360;28;20924;-78
2022/02/25 01:39:43;;;;;;;0.88;0.82;;;8.20;99.90;;;;;;5076672;28;20667;-79
2022/02/25 01:42:11;;;;;;;1.10;0.82;;;8.20;99.90;;;;;;5079775;28;20213;-78
2022/02/25 01:44:41;;;;;;;1.08;0.70;;;8.20;99.90;;;;;;5071891;28;20210;-78
2022/02/25 01:47:12;;;;;;;1.80;0.80;;;8.20;99.90;;;;;;5084732;28;20854;-79
2022/02/25 01:49:41;;;;;;;1.38;0.90;;;8.20;99.90;;;;;;5067292;28;20196;-79
2022/02/25 01:52:15;;;;;;;1.83;1.52;;;8.20;99.90;;;;;;5092171;28;20211;-78
2022/02/25 01:54:44;;;;;;;0.80;0.80;;;8.20;99.90;;;;;;5080289;28;20195;-78
2022/02/25 01:57:16;;;;;;;2.58;1.00;;;8.20;99.90;;;;;;5074691;28;20281;-78
2022/02/25 01:59:45;;;;;;;1.10;0.80;;;8.20;99.90;;;;;;5068715;28;20222;-79
2022/02/25 02:02:14;;;;;;;1.45;1.05;;;8.20;99.90;;;;;;5083690;28;20206;-78
2022/02/25 02:04:42;;;;;;;1.58;1.00;;;8.20;99.90;;;;;;5088303;28;20195;-78
2022/02/25 02:07:10;;;;;;;0.90;0.80;;;8.20;99.90;;;;;;5091913;28;20717;-78
2022/02/25 02:09:39;;;;;;;1.25;0.90;;;8.20;99.90;;;;;;5079688;28;20746;-78
2022/02/25 02:12:08;;;;;;;1.70;1.30;;;8.20;99.90;;;;;;5075194;28;20547;-78
2022/02/25 02:14:37;;;;;;;1.92;0.90;;;8.20;99.90;;;;;;5081541;28;20243;-78
2022/02/25 02:17:05;;;;;;;1.83;1.00;;;8.10;99.90;;;;;;5091117;28;20218;-78
2022/02/25 02:19:33;;;;;;;2.75;0.98;;;8.10;99.90;;;;;;5091421;28;20236;-78
2022/02/25 02:22:03;;;;;;;1.38;1.27;;;8.10;99.90;;;;;;5076525;28;20234;-78
2022/02/25 02:24:32;;;;;;;2.20;0.98;;;8.10;99.90;;;;;;5084296;28;20245;-78
2022/02/25 02:27:00;;;;;;;2.05;0.98;;;8.10;99.90;;;;;;5092458;28;20219;-78
2022/02/25 02:29:29;;;;;;;0.80;0.80;;;8.10;99.90;;;;;;5086162;28;20615;-78
2022/02/25 02:31:58;;;;;;;1.83;1.20;;;8.10;99.90;;;;;;5084253;28;20224;-78
2022/02/25 02:34:26;;;;;;;1.10;0.90;;;8.10;99.90;;;;;;5060420;28;20213;-78
2022/02/25 02:36:54;;;;;;;1.92;1.00;;;8.10;99.90;;;;;;5076352;28;20218;-78
2022/02/25 02:39:22;;;;;;;1.40;0.80;;;8.10;99.90;;;;;;5082077;28;20351;-78
2022/02/25 02:41:52;;;;;;;1.08;0.93;;;8.10;99.90;;;;;;5077447;28;20219;-78
2022/02/25 02:44:20;;;;;;;3.17;1.50;;;8.10;99.90;;;;;;5062734;28;20188;-78
2022/02/25 02:46:48;;;;;;;2.38;1.10;;;8.10;99.90;;;;;;5072834;28;20227;-78
2022/02/25 02:49:16;;;;;;;1.20;1.10;;;8.10;99.90;;;;;;5074360;28;20707;-78
2022/02/25 02:51:44;;;;;;;2.13;0.70;;;8.10;99.90;;;;;;5091279;28;20234;-78
2022/02/25 02:54:12;;;;;;;1.60;1.00;;;8.10;99.90;;;;;;5073802;28;20732;-78
2022/02/25 02:56:40;;;;;;;1.67;0.93;;;8.10;99.90;;;;;;5078113;28;20312;-78
2022/02/25 02:59:10;;;;;;;1.50;1.10;;;8.10;99.90;;;;;;5087850;28;20198;-78
2022/02/25 03:01:38;;;;;;;1.20;0.80;;;8.10;99.90;;;;;;5054426;28;20221;-78
2022/02/25 03:04:08;;;;;;;1.33;1.10;;;8.10;99.90;;;;;;5082079;28;20211;-78
2022/02/25 03:06:36;;;;;;;1.08;0.88;;;8.10;99.90;;;;;;5078460;28;20237;-77
2022/02/25 03:09:04;;;;;;;3.38;1.58;;;8.10;99.90;;;;;;5080725;28;20202;-78
2022/02/25 03:11:33;;;;;;;2.20;1.00;;;8.10;99.90;;;;;;5054545;28;20225;-78
2022/02/25 03:14:02;;;;;;;1.90;1.10;;;8.00;99.90;;;;;;5073284;28;20223;-78
2022/02/25 03:16:31;;;;;;;1.58;1.00;;;8.10;99.90;;;;;;5072208;28;20211;-78
2022/02/25 03:18:59;;;;;;;1.85;1.10;;;8.00;99.90;;;;;;5088902;28;20196;-78
2022/02/25 03:21:27;;;;;;;3.17;1.10;;;8.00;99.90;;;;;;5076724;28;20221;-78
2022/02/25 03:23:56;;;;;;;2.00;1.00;;;8.00;99.90;;;;;;5091922;28;20184;-78
2022/02/25 03:26:24;;;;;;;2.13;0.90;;;8.00;99.90;;;;;;5091710;28;20675;-78
2022/02/25 03:28:52;;;;;;;1.02;0.90;;;8.00;99.90;;;;;;5086704;28;20576;-77
2022/02/25 03:31:20;;;;;;;2.08;1.10;;;8.00;99.90;;;;;;5091687;28;20360;-78
2022/02/25 03:33:50;;;;;;;1.75;1.10;;;8.00;99.90;;;;;;5075453;28;20273;-78
2022/02/25 03:36:20;;;;;;;2.00;1.00;;;8.00;99.90;;;;;;5072216;28;20693;-78
2022/02/25 03:38:48;;;;;;;1.42;1.00;;;8.00;99.90;;;;;;5078972;28;20747;-78
2022/02/25 03:41:18;;;;;;;1.63;1.00;;;8.00;99.90;;;;;;5080001;28;20219;-78
2022/02/25 03:43:46;;;;;;;4.28;1.10;;;8.00;99.90;;;;;;5086543;28;20258;-77
2022/02/25 03:46:14;;;;;;;1.80;0.85;;;8.00;99.90;;;;;;5080596;28;20329;-78
2022/02/25 03:48:42;;;;;;;1.50;1.10;;;8.00;99.90;;;;;;5087345;28;20191;-78
2022/02/25 03:51:12;;;;;;;1.10;0.75;;;7.90;99.90;;;;;;5075502;28;20661;-77
2022/02/25 03:53:40;;;;;;;1.13;0.80;;;7.90;99.90;;;;;;5085822;28;20200;-78
2022/02/25 03:56:08;;;;;;;3.17;1.20;;;7.90;99.90;;;;;;5071990;28;20273;-78
2022/02/25 03:58:36;;;;;;;2.00;1.27;;;8.00;99.90;;;;;;5089823;28;20238;-78
2022/02/25 04:01:04;;;;;;;2.72;1.20;;;7.90;99.90;;;;;;5071451;28;20223;-78
2022/02/25 04:03:32;;;;;;;1.30;0.88;;;7.90;99.90;;;;;;5081726;28;20180;-78
2022/02/25 04:06:01;;;;;;;1.25;0.82;;;7.90;99.90;;;;;;5082314;28;20268;-78
2022/02/25 04:08:30;;;;;;;3.25;1.40;;;7.90;99.90;;;;;;5091363;28;20191;-78
2022/02/25 04:10:58;;;;;;;1.70;1.10;;;7.90;99.90;;;;;;5090528;28;20278;-78
2022/02/25 04:13:27;;;;;;;3.35;1.50;;;7.90;99.90;;;;;;5077800;28;20222;-78
2022/02/25 04:15:55;;;;;;;2.40;1.33;;;7.90;99.90;;;;;;5090270;28;20231;-78
2022/02/25 04:18:23;;;;;;;3.00;1.35;;;7.90;99.90;;;;;;5087471;28;20188;-78
2022/02/25 04:20:51;;;;;;;3.08;1.02;;;7.90;99.90;;;;;;5079129;28;20219;-78
2022/02/25 04:23:19;;;;;;;2.92;0.85;;;7.90;99.90;;;;;;5079312;28;20208;-78
2022/02/25 04:25:49;;;;;;;1.35;0.90;;;7.90;99.90;;;;;;5070713;28;20381;-78
2022/02/25 04:28:17;;;;;;;1.20;1.08;;;7.90;99.90;;;;;;5073717;28;20239;-78
2022/02/25 04:30:46;;;;;;;2.03;0.90;;;7.90;99.90;;;;;;5081145;28;20215;-78
2022/02/25 04:33:14;;;;;;;1.77;1.17;;;7.90;99.90;;;;;;5071224;28;20192;-78
2022/02/25 04:35:42;;;;;;;2.13;1.00;;;7.90;99.90;;;;;;5072391;28;20228;-78
2022/02/25 04:38:11;;;;;;;2.35;1.00;;;7.80;99.90;;;;;;5080551;28;20202;-77
2022/02/25 04:40:39;;;;;;;1.30;1.00;;;7.80;99.90;;;;;;5091117;28;20226;-78
2022/02/25 04:43:09;;;;;;;2.58;1.35;;;7.80;99.90;;;;;;5085033;28;20193;-78
2022/02/25 04:45:37;;;;;;;1.35;0.70;;;7.90;99.90;;;;;;5084469;28;20272;-78
2022/02/25 04:48:06;;;;;;;3.05;1.00;;;7.80;99.90;;;;;;5080877;28;20201;-78
2022/02/25 04:50:34;;;;;;;6.43;2.10;;;7.80;99.90;;;;;;5079335;28;20235;-78
2022/02/25 04:53:02;;;;;;;3.35;1.20;;;7.80;99.90;;;;;;5082809;28;20237;-78
2022/02/25 04:55:30;;;;;;;1.58;0.90;;;7.80;99.90;;;;;;5082074;28;20307;-77
2022/02/25 04:57:58;;;;;;;1.85;0.80;;;7.80;99.90;;;;;;5072012;28;20241;-78
2022/02/25 05:00:28;;;;;;;3.60;0.90;;;7.80;99.90;;;;;;5072314;28;20220;-77
2022/02/25 05:02:56;;;;;;;2.97;1.40;;;7.80;99.90;;;;;;5070921;28;20199;-78
2022/02/25 05:05:25;;;;;;;4.88;1.17;;;7.80;99.90;;;;;;5072571;28;20254;-77
2022/02/25 05:07:53;;;;;;;1.63;1.02;;;7.80;99.90;;;;;;5070959;28;20215;-78
2022/02/25 05:10:21;;;;;;;2.67;1.20;;;7.80;99.90;;;;;;5070201;28;20231;-78
2022/02/25 05:12:49;;;;;;;4.35;1.17;;;7.80;99.90;;;;;;5082704;28;20726;-78
2022/02/25 05:20:50;;;;;;;1.80;1.10;;;7.80;99.90;;;;;;5079646;28;20218;-78
2022/02/25 05:23:18;;;;;;;4.03;1.40;;;7.80;99.90;;;;;;5094201;28;20187;-78
2022/02/25 05:25:47;;;;;;;1.70;1.30;;;7.80;99.90;;;;;;5091374;28;20219;-78
2022/02/25 05:28:15;;;;;;;2.13;1.27;;;7.80;99.90;;;;;;5077093;28;20252;-78
2022/02/25 05:30:44;;;;;;;6.68;1.33;;;7.70;99.90;;;;;;5081878;28;20232;-78
2022/02/25 05:33:13;;;;;;;4.32;1.30;;;7.70;99.90;;;;;;5091232;28;20196;-78
2022/02/25 05:35:42;;;;;;;2.63;1.15;;;7.80;99.90;;;;;;5061457;28;20697;-78
2022/02/25 05:38:10;;;;;;;1.60;0.90;;;7.70;99.90;;;;;;5084126;28;20195;-78
2022/02/25 05:40:38;;;;;;;3.40;1.55;;;7.70;99.90;;;;;;5092856;28;20638;-78
2022/02/25 05:43:07;;;;;;;2.10;1.55;;;7.70;99.90;;;;;;5075193;28;20215;-78
2022/02/25 05:45:35;;;;;;;3.35;1.02;;;7.70;99.90;;;;;;5086855;28;20778;-78
2022/02/25 05:48:06;;;;;;;5.40;1.83;;;7.70;99.90;;;;;;5093378;28;20245;-78
2022/02/25 05:50:36;;;;;;;1.50;1.05;;;7.70;99.90;;;;;;5079941;28;20219;-78
2022/02/25 05:53:04;;;;;;;3.53;1.02;;;7.70;99.90;;;;;;5083119;28;20203;-78
2022/02/25 05:55:32;;;;;;;2.75;1.13;;;7.70;99.90;;;;;;5091132;28;20239;-78
2022/02/25 05:58:03;;;;;;;2.20;1.08;;;7.70;99.90;;;;;;5056250;28;20188;-78
2022/02/25 06:00:37;;;;;;;1.50;1.00;;;7.70;99.90;;;;;;5080479;28;20598;-78
2022/02/25 06:03:05;;;;;;;2.08;1.20;;;7.70;99.90;;;;;;5092348;28;20785;-78
2022/02/25 06:05:35;;;;;;;2.70;1.00;;;7.70;99.90;;;;;;5074178;28;20275;-78
2022/02/25 06:08:03;;;;;;;2.65;1.20;;;7.70;99.90;;;;;;5082554;28;20199;-78
2022/02/25 06:10:32;;;;;;;3.08;1.20;;;7.70;99.90;;;;;;5090796;28;20277;-78
2022/02/25 06:13:00;;;;;;;2.33;1.13;;;7.70;99.90;;;;;;5076852;28;20222;-77
2022/02/25 06:15:29;;;;;;;1.50;0.88;;;7.60;99.90;;;;;;5087923;28;20847;-78
2022/02/25 06:17:58;;;;;;;5.05;1.98;;;7.70;99.90;;;;;;5073609;28;20220;-77
2022/02/25 06:20:26;;;;;;;3.42;1.25;;;7.60;99.90;;;;;;5074361;28;20231;-77
2022/02/25 06:22:55;;;;;;;2.88;1.00;;;7.60;99.90;;;;;;5073485;28;20200;-78
2022/02/25 06:25:24;;;;;;;5.43;1.40;;;7.60;99.90;;;;;;5075888;28;20265;-78
2022/02/25 06:27:52;;;;;;;3.40;1.23;;;7.60;99.90;;;;;;5086030;28;20226;-78
2022/02/25 06:30:20;;;;;;;2.20;1.40;;;7.60;99.90;;;;;;5073066;28;20270;-78
2022/02/25 06:32:49;;;;;;;2.78;0.88;;;7.60;99.90;;;;;;5072466;28;20205;-78
2022/02/25 06:35:17;;;;;;;2.30;1.20;;;7.60;99.90;;;;;;5081001;28;20243;-77
2022/02/25 06:37:45;;;;;;;3.20;1.10;;;7.60;99.90;;;;;;5093044;28;20191;-78
2022/02/25 06:40:14;;;;;;;6.47;1.55;;;7.60;99.90;;;;;;5079297;28;20218;-78
2022/02/25 06:42:42;;;;;;;6.25;1.25;;;7.60;99.90;;;;;;5067511;28;20238;-78
2022/02/25 06:45:16;;;;;;;3.80;1.65;;;7.60;99.90;;;;;;5074645;28;20308;-78
2022/02/25 06:47:44;;;;;;;2.88;1.15;;;7.60;99.90;;;;;;5075400;28;20193;-77
2022/02/25 06:50:13;;;;;;;1.58;1.05;;;7.60;99.90;;;;;;5075615;28;20225;-77
2022/02/25 06:52:42;;;;;;;9.00;1.80;;;7.60;99.90;;;;;;5091135;28;20184;-78
2022/02/25 06:55:11;;;;;;;4.78;1.40;;;7.60;99.90;;;;;;5091402;28;20226;-77
2022/02/25 06:58:01;;;;;;;4.88;1.20;;;7.60;99.90;;;;;;5066920;28;20598;-78
2022/02/25 07:00:30;;;;;;;4.97;2.30;;;7.50;99.90;;;;;;5085472;28;20643;-78
2022/02/25 07:02:59;;;;;;;2.65;0.90;;;7.50;99.90;;;;;;5058077;28;20187;-78
2022/02/25 07:05:28;;;;;;;2.35;1.20;;;7.50;99.90;;;;;;5077064;28;20227;-78
2022/02/25 07:07:57;;;;;;;3.10;1.05;;;7.50;99.90;;;;;;5066275;28;20199;-77
2022/02/25 07:10:31;;;;;;;3.13;1.48;;;7.50;99.90;;;;;;5083586;28;20227;-78
2022/02/25 07:13:02;;;;;;;2.10;0.90;;;7.50;99.90;;;;;;5083684;28;20192;-77
2022/02/25 07:15:30;;;;;;;2.33;1.40;;;7.50;99.90;;;;;;5085466;28;20226;-78
2022/02/25 07:17:59;;;;;;;1.42;1.02;;;7.50;99.90;;;;;;5080208;28;20662;-78
2022/02/25 07:20:28;;;;;;;3.10;1.02;;;7.50;99.90;;;;;;5079391;28;20238;-78
2022/02/25 07:22:57;;;;;;;3.53;1.20;;;7.50;99.90;;;;;;5072567;28;20640;-78
2022/02/25 07:25:26;;;;;;;2.83;1.25;;;7.50;99.90;;;;;;5085365;28;20649;-78
2022/02/25 07:27:54;;;;;;;3.55;1.30;;;7.50;99.90;;;;;;5072353;28;20223;-78
2022/02/25 07:30:26;;;;;;;3.22;1.27;;;7.50;99.90;;;;;;5090963;28;20222;-78
2022/02/25 07:32:55;;;;;;;3.03;1.58;;;7.50;99.90;;;;;;5075821;28;20216;-78
2022/02/25 07:35:23;;;;;;;3.85;1.10;;;7.50;99.90;;;;;;5077584;28;20230;-77
2022/02/25 07:37:52;;;;;;;1.92;1.20;;;7.50;99.90;;;;;;5080967;28;20206;-75
2022/02/25 07:40:23;;;;;;;2.75;1.40;;;7.50;99.90;;;;;;5091826;28;20290;-78
2022/02/25 07:42:52;;;;;;;3.10;1.13;;;7.50;99.90;;;;;;5083803;28;20220;-78
2022/02/25 07:45:21;;;;;;;2.22;1.10;;;7.50;99.90;;;;;;5085973;28;20219;-77
2022/02/25 07:47:51;;;;;;;2.25;1.20;;;7.50;99.90;;;;;;5092490;28;20183;-78
2022/02/25 07:50:19;;;;;;;3.08;1.65;;;7.50;99.90;;;;;;5084522;28;20773;-77
2022/02/25 07:52:47;;;;;;;2.72;1.67;;;7.50;99.90;;;;;;5082475;28;20586;-78
2022/02/25 07:55:15;;;;;;;4.60;1.38;;;7.50;99.90;;;;;;5081252;28;20316;-77
2022/02/25 07:57:44;;;;;;;3.10;1.20;;;7.50;99.90;;;;;;5077662;28;20203;-77
2022/02/25 08:00:29;;;;;;;4.95;1.58;;;7.50;99.90;;;;;;5060507;28;20222;-78
2022/02/25 08:03:02;;;;;;;3.28;1.13;;;7.50;99.90;;;;;;5074979;28;20214;-77
2022/02/25 08:05:33;;;;;;;2.95;1.42;;;7.50;99.90;;;;;;5082594;28;20215;-78
2022/02/25 08:08:02;;;;;;;2.67;1.30;;;7.50;99.90;;;;;;5083177;28;20190;-78
2022/02/25 08:10:32;;;;;;;3.10;1.90;;;7.50;99.90;;;;;;5081741;28;20226;-78
2022/02/25 08:13:03;;;;;;;2.88;1.30;;;7.50;99.90;;;;;;5082832;28;20195;-77
2022/02/25 08:15:34;;;;;;;2.95;1.48;;;7.50;99.90;;;;;;5071674;28;20219;-77
2022/02/25 08:18:04;;;;;;;6.53;1.70;;;7.50;99.90;;;;;;5080108;28;20195;-78
2022/02/25 08:20:33;;;;;;;3.60;1.73;;;7.50;99.90;;;;;;5062107;28;20290;-77
2022/02/25 08:23:02;;;;;;;3.38;1.60;;;7.50;99.90;;;;;;5071433;28;20279;-78
2022/02/25 08:25:32;;;;;;;5.95;1.40;;;7.50;99.90;;;;;;5071896;28;20243;-77
2022/02/25 08:28:00;;;;;;;2.95;1.30;;;7.50;99.90;;;;;;5088358;28;20250;-77
2022/02/25 08:30:28;;;;;;;4.43;1.60;;;7.50;99.90;;;;;;5074616;28;20256;-78
2022/02/25 08:33:00;;;;;;;3.35;1.27;;;7.50;99.90;;;;;;5073680;28;20192;-78
2022/02/25 08:35:32;;;;;;;2.13;1.10;;;7.50;99.90;;;;;;5077171;28;20280;-78
2022/02/25 08:38:01;;;;;;;1.95;1.63;;;7.50;99.90;;;;;;5072327;28;20196;-78
2022/02/25 08:40:30;;;;;;;1.10;1.00;;;7.50;99.90;;;;;;5080104;28;20223;-77
2022/02/25 08:42:59;;;;;;;4.03;1.50;;;7.50;99.90;;;;;;5069581;28;20236;-78
2022/02/25 08:45:28;;;;;;;3.00;1.20;;;7.50;99.90;;;;;;5084937;28;20260;-77
2022/02/25 08:47:56;;;;;;;2.95;1.58;;;7.50;99.90;;;;;;5089502;28;20199;-78
2022/02/25 08:50:24;;;;;;;2.97;2.42;;;7.50;99.90;;;;;;5071475;28;20240;-77
2022/02/25 08:52:55;;;;;;;1.50;1.10;;;7.50;99.90;;;;;;5079852;28;20175;-78
2022/02/25 08:55:25;;;;;;;3.83;1.20;;;7.50;99.90;;;;;;5077735;28;20257;-78
2022/02/25 08:57:53;;;;;;;4.00;1.33;;;7.50;99.90;;;;;;5055586;28;20211;-78
2022/02/25 09:00:24;;;;;;;5.97;1.63;;;7.50;99.90;;;;;;5088200;28;20227;-78
2022/02/25 09:02:53;;;;;;;2.30;1.40;;;7.50;99.90;;;;;;5073202;28;20587;-78
2022/02/25 09:05:22;;;;;;;2.58;1.42;;;7.50;99.90;;;;;;5072580;28;20230;-78
2022/02/25 09:07:52;;;;;;;2.85;1.20;;;7.50;99.90;;;;;;5073060;28;20245;-77
2022/02/25 09:10:23;;;;;;;2.17;1.45;;;7.50;99.90;;;;;;5090500;28;20233;-78
2022/02/25 09:12:52;;;;;;;3.00;1.10;;;7.50;99.90;;;;;;5090888;28;20196;-77
2022/02/25 09:15:23;;;;;;;4.85;2.00;;;7.50;99.90;;;;;;5072365;28;20246;-78
2022/02/25 09:17:52;;;;;;;3.72;1.70;;;7.50;99.90;;;;;;5090768;28;20223;-78
2022/02/25 09:20:22;;;;;;;5.40;1.73;;;7.50;99.90;;;;;;5088372;28;20243;-78
2022/02/25 09:22:51;;;;;;;5.43;2.00;;;7.50;99.90;;;;;;5088921;28;20595;-78
2022/02/25 09:25:26;;;;;;;2.75;1.50;;;7.50;99.90;;;;;;5090085;28;20219;-78
2022/02/25 09:27:54;;;;;;;3.97;1.23;;;7.50;99.90;;;;;;5086960;28;20636;-78
2022/02/25 09:30:22;;;;;;;3.25;1.42;;;7.50;99.90;;;;;;5083930;28;20215;-77
2022/02/25 09:32:51;;;;;;;3.13;1.13;;;7.50;99.90;;;;;;5090853;28;20229;-78
2022/02/25 09:35:19;;;;;;;3.03;1.35;;;7.50;99.90;;;;;;5087208;28;20215;-78
2022/02/25 09:37:47;;;;;;;6.20;1.40;;;7.50;99.90;;;;;;5090564;28;20674;-78
2022/02/25 09:40:18;;;;;;;4.28;1.38;;;7.50;99.90;;;;;;5089997;28;20713;-78
2022/02/25 09:42:48;;;;;;;4.65;1.50;;;7.50;99.90;;;;;;5090955;28;20290;-78
2022/02/25 09:45:18;;;;;;;5.15;1.20;;;7.50;99.90;;;;;;5090175;28;20250;-77
2022/02/25 09:47:47;;;;;;;3.90;1.80;;;7.50;99.90;;;;;;5090160;28;20182;-78
2022/02/25 09:50:17;;;;;;;3.47;1.27;;;7.50;99.90;;;;;;5062882;28;21751;-78
2022/02/25 09:52:46;;;;;;;2.10;1.13;;;7.50;99.90;;;;;;5072399;28;20225;-78
2022/02/25 09:55:23;;;;;;;2.90;1.30;;;7.50;99.90;;;;;;5071786;28;20230;-78
2022/02/25 09:57:54;;;;;;;2.80;1.23;;;7.50;99.90;;;;;;5090718;28;20222;-78
2022/02/25 10:00:23;;;;;;;2.30;1.30;;;7.50;99.90;;;;;;5071869;28;20288;-78
2022/02/25 10:02:55;;;;;;;2.65;1.40;;;7.50;99.90;;;;;;5082144;28;20242;-78
2022/02/25 10:05:25;;;;;;;3.50;1.70;;;7.50;99.90;;;;;;5068656;28;20236;-78
2022/02/25 10:07:54;;;;;;;2.15;1.40;;;7.50;99.90;;;;;;5089338;28;20221;-78
2022/02/25 10:10:28;;;;;;;4.03;1.60;;;7.50;99.90;;;;;;5076429;28;20219;-78
2022/02/25 10:13:01;;;;;;;3.95;1.63;;;7.50;99.90;;;;;;5091407;28;20393;-78
2022/02/25 10:15:30;;;;;;;4.05;1.25;;;7.50;99.90;;;;;;5073005;28;20691;-78
2022/02/25 10:18:03;;;;;;;5.55;0.95;;;7.50;99.90;;;;;;5071946;28;20688;-78
2022/02/25 10:20:32;;;;;;;3.75;1.60;;;7.50;99.90;;;;;;5083261;28;20220;-78
2022/02/25 10:23:22;;;;;;;2.85;1.55;;;7.50;99.90;;;;;;5080478;28;20196;-78
2022/02/25 10:25:51;;;;;;;2.25;1.50;;;7.50;99.90;;;;;;5078357;28;20222;-78
2022/02/25 10:28:29;;;;;;;5.57;1.73;;;7.50;99.90;;;;;;5091563;28;20183;-78
2022/02/25 10:31:15;;;;;;;3.53;1.40;;;7.50;99.90;;;;;;5082097;28;20703;-78
2022/02/25 10:33:43;;;;;;;6.55;1.70;;;7.50;99.90;;;;;;5078780;28;20191;-78
2022/02/25 10:36:11;;;;;;;3.50;1.60;;;7.50;99.90;;;;;;5058102;28;20882;-78
2022/02/25 10:38:40;;;;;;;2.25;1.25;;;7.50;99.90;;;;;;5091962;28;20226;-78
2022/02/25 10:41:08;;;;;;;4.40;1.75;;;7.50;99.90;;;;;;5073072;28;20272;-78
2022/02/25 10:43:45;;;;;;;4.60;2.03;;;7.50;99.90;;;;;;5092230;28;20195;-78
2022/02/25 10:46:13;;;;;;;5.15;1.73;;;7.50;99.90;;;;;;5075311;28;20604;-78
2022/02/25 10:48:44;;;;;;;2.33;1.13;;;7.50;99.90;;;;;;5074619;28;20241;-78
2022/02/25 10:51:22;;;;;;;1.90;1.45;;;7.50;99.90;;;;;;5088581;28;20310;-78
2022/02/25 10:53:54;;;;;;;3.35;1.42;;;7.50;99.90;;;;;;5072968;28;20645;-78
2022/02/25 10:56:24;;;;;;;3.88;1.55;;;7.50;99.90;;;;;;5062664;28;20215;-78
2022/02/25 10:58:55;;;;;;;2.33;1.42;;;7.50;99.90;;;;;;5081191;28;20557;-78
2022/02/25 11:01:33;;;;;;;2.70;1.73;;;7.50;99.90;;;;;;5073045;28;20228;-78
2022/02/25 11:04:04;;;;;;;4.88;1.30;;;7.50;99.90;;;;;;5081296;28;20200;-78
2022/02/25 11:06:32;;;;;;;1.85;1.30;;;7.50;99.90;;;;;;5060952;28;20567;-78
2022/02/25 11:09:01;;;;;;;4.15;1.00;;;7.50;99.90;;;;;;5089170;28;20187;-78
2022/02/25 11:11:31;;;;;;;2.97;1.80;;;7.50;99.90;;;;;;5083677;28;20224;-78
2022/02/25 11:14:03;;;;;;;3.88;1.50;;;7.50;99.90;;;;;;5092337;28;20203;-78
2022/02/25 11:16:32;;;;;;;5.15;1.63;;;7.50;99.90;;;;;;5085666;28;20229;-78
2022/02/25 11:19:22;;;;;;;2.50;1.20;;;7.50;99.90;;;;;;5081826;28;20212;-78
2022/02/25 11:21:50;;;;;;;2.35;1.40;;;7.50;99.90;;;;;;5071865;28;20223;-78
2022/02/25 11:24:19;;;;;;;3.58;1.45;;;7.50;99.90;;;;;;5083071;28;20730;-78
2022/02/25 11:26:53;;;;;;;3.22;1.58;;;7.50;99.90;;;;;;5082468;28;20656;-78
2022/02/25 11:29:28;;;;;;;3.15;2.05;;;7.50;99.90;;;;;;5084075;28;21772;-78
2022/02/25 11:32:00;;;;;;;7.20;1.48;;;7.50;99.90;;;;;;5091037;28;20580;-78
2022/02/25 11:34:28;;;;;;;2.92;1.60;;;7.50;99.90;;;;;;5075742;28;20202;-78
2022/02/25 11:36:58;;;;;;;5.70;1.67;;;7.50;99.90;;;;;;5091317;28;20309;-78
2022/02/25 11:39:29;;;;;;;3.25;1.27;;;7.50;99.90;;;;;;5070498;28;20261;-78
2022/02/25 11:41:59;;;;;;;3.33;1.40;;;7.50;99.90;;;;;;5071867;28;20216;-78
2022/02/25 11:44:29;;;;;;;5.20;1.65;;;7.50;99.90;;;;;;5088470;28;20202;-78
2022/02/25 11:46:58;;;;;;;4.25;1.85;;;7.50;99.90;;;;;;5074619;28;20681;-78
2022/02/25 11:49:29;;;;;;;7.43;2.13;;;7.50;99.90;;;;;;5088092;28;20184;-78
2022/02/25 11:52:02;;;;;;;5.53;1.80;;;7.50;99.90;;;;;;5071229;28;20227;-78
2022/02/25 11:54:45;;;;;;;4.65;1.77;;;7.50;99.90;;;;;;5065992;28;20687;-78
2022/02/25 11:57:24;;;;;;;2.28;1.38;;;7.50;99.90;;;;;;5091877;28;20348;-78
2022/02/25 12:00:21;;;;;;;2.72;1.42;;;7.50;99.90;;;;;;5074950;28;20188;-77
2022/02/25 12:03:11;;;;;;;1.35;1.00;;;7.50;99.90;;;;;;5071569;28;20188;-78
2022/02/25 12:05:45;;;;;;;4.00;1.60;;;7.50;99.90;;;;;;5083155;28;20219;-78
2022/02/25 12:08:31;;;;;;;3.30;1.75;;;7.50;99.90;;;;;;5091891;28;20188;-78
2022/02/25 12:11:21;;;;;;;2.55;1.67;;;7.50;99.90;;;;;;5076977;28;20294;-78
2022/02/25 12:13:51;;;;;;;4.28;2.05;;;7.50;99.90;;;;;;5090474;28;20196;-78
2022/02/25 12:16:33;;;;;;;2.20;1.60;;;7.50;99.90;;;;;;5070661;28;20221;-78
2022/02/25 12:19:11;;;;;;;4.97;1.70;;;7.50;99.90;;;;;;5065755;28;20203;-78
2022/02/25 12:21:41;;;;;;;3.80;1.58;;;7.40;99.90;;;;;;5066647;28;20741;-78
2022/02/25 12:24:12;;;;;;;4.15;1.98;;;7.40;99.90;;;;;;5080973;28;20203;-78
2022/02/25 12:26:41;;;;;;;2.92;1.98;;;7.50;99.90;;;;;;5075412;28;20235;-78
2022/02/25 12:29:17;;;;;;;5.93;2.15;;;7.40;99.90;;;;;;5073653;28;20185;-78
2022/02/25 12:31:48;;;;;;;4.07;1.45;;;7.50;99.90;;;;;;5082411;28;20227;-78
2022/02/25 12:34:21;;;;;;;3.15;2.03;;;7.50;99.90;;;;;;5084023;28;20188;-78
2022/02/25 12:36:51;;;;;;;2.05;1.30;;;7.40;99.90;;;;;;5078095;28;20631;-78
2022/02/25 12:39:24;;;;;;;4.63;1.60;;;7.40;99.90;;;;;;5071703;28;20620;-78
2022/02/25 12:41:57;;;;;;;2.67;1.98;;;7.50;99.90;;;;;;5079928;28;20214;-78
2022/02/25 12:44:28;;;;;;;2.70;1.58;;;7.50;99.90;;;;;;5087988;28;20547;-78
2022/02/25 12:46:59;;;;;;;8.27;1.92;;;7.40;99.90;;;;;;5077707;28;20705;-78
2022/02/25 12:49:31;;;;;;;3.72;1.65;;;7.40;99.90;;;;;;5072510;28;20692;-78
2022/02/25 12:52:02;;;;;;;3.90;1.58;;;7.40;99.90;;;;;;5073032;28;20219;-78
2022/02/25 12:54:31;;;;;;;4.22;1.40;;;7.40;99.90;;;;;;5070698;28;20241;-77
2022/02/25 12:57:01;;;;;;;3.35;1.80;;;7.40;99.90;;;;;;5071391;28;20243;-79
2022/02/25 12:59:36;;;;;;;5.57;1.90;;;7.50;99.90;;;;;;5071796;28;20211;-79
2022/02/25 13:02:07;;;;;;;3.70;2.05;;;7.40;99.90;;;;;;5070777;28;20269;-78
2022/02/25 13:04:44;;;;;;;3.58;1.60;;;7.40;99.90;;;;;;5076731;28;20281;-78
2022/02/25 13:07:14;;;;;;;2.25;1.42;;;7.40;99.90;;;;;;5074407;28;20210;-78
2022/02/25 13:09:42;;;;;;;2.60;1.38;;;7.40;99.90;;;;;;5076494;28;20196;-78
2022/02/25 13:12:15;;;;;;;4.07;2.28;;;7.40;99.90;;;;;;5083669;28;20242;-78
2022/02/25 13:14:46;;;;;;;10.60;2.30;;;7.40;99.90;;;;;;5086173;28;20199;-78
2022/02/25 13:17:19;;;;;;;5.03;1.90;;;7.40;99.90;;;;;;5071501;28;20226;-78